Bay Pines, Florida
Current Conditions -  °F | °C
As of 2:53 PM on Monday 22 Dec 2014 (Local Time) from KPIE Reporting Station
Few Clouds Few Clouds  
Wind Chill: 77°   Ceiling: Unl
Heat Index: 79°   Visibility: 10mi
Dew Point: 70°   Wind: 20mph
Humidity: 79%   Direction: 200°SSW
Pressure: 29.9"   Gusts: NA
Location:  27.82°N, 82.78°W
Report Text: KPIE 221953Z AUTO 20017KT 10SM FEW015 25/21 A2990 RMK AO2 SLP126 T02500211
Loading
Personal Weather Stations






























Interactive Weather Map New forecast layout! Learn more

10-Day Weather Forecast

Advertisements
Track Severe Weather on mobile